Terminal Aerodrome Forecast
Issued by NWS Mt. Holly, NJ

Home | Current Version | Previous Version | Text Only | Print | Product List | Glossary On
Versions: 1 2 3 4 5 6 7 8 9 10 11 12 13 14 15 16 17 18 19 20 21 22 23
000
FTUS41 KPHI 261100
TAFPHL
TAF
KPHL 261135Z 2612/2718 20006KT P6SM BKN150
      TEMPO 2612/2614 -SHRA BKN050
     FM261500 22010G18KT P6SM SCT050
     FM262300 20008KT P6SM SCT050 BKN250
     FM270900 20008KT P6SM BKN100=

USA.gov is the U.S. government's official web portal to all federal, state and local government web resources and services.